Main page
METAR-TAF:

METAR-TAF

Airports :

Beverly Regional Airport

Beverly, Massachusetts, United States

latitude: 42-35-01N, longitude: 070-54-59W, elevation: 108 ft

Current weather observation

The report was made 37 minutes ago, at 17:53 UTC
Wind 29 mph from the West with gusts up to 43 mph
Temperature 46°F
Humidity 49%
Pressure 29.22 in. Hg
Visibility: 10 miles
Clear sky

METAR: KBVY 271753Z 27025G37KT 10SM CLR 08/M02 A2922 RMK AO2 PK WND 26042/1714 SLP891 60035 T00781022 10117 20067 51024

Time: 13:30 (18:30 UTC)


TAF: missing

Weather observations and forecasts of more than 4000 airports (METAR and TAF reports).

The available stations are represented by yellow and red dots on the map.

Hover mouse over dot to see the name of the station.

Then click to see weather observations and forecasts.

To change the map : click on the green buttons with a black cross to zoom in, on the green button with a dash to zoom out, or on the green arrows for adjacent maps.


METAR-TAF: